sensor_id;sensor_type;location;lat;lon;timestamp;temperature;humidity
37478;DHT22;23334;54.316;10.182;2022-08-19T19:27:06;17.90;99.90
37478;DHT22;23334;54.316;10.182;2022-08-19T19:29:34;17.80;99.90
37478;DHT22;23334;54.316;10.182;2022-08-19T19:32:05;17.80;99.90
37478;DHT22;23334;54.316;10.182;2022-08-19T19:34:31;17.80;99.90
37478;DHT22;23334;54.316;10.182;2022-08-19T19:36:57;17.70;99.90
37478;DHT22;23334;54.316;10.182;2022-08-19T19:44:15;17.60;99.90
37478;DHT22;23334;54.316;10.182;2022-08-19T19:46:42;17.50;99.90
37478;DHT22;23334;54.316;10.182;2022-08-19T19:49:08;17.50;99.90
37478;DHT22;23334;54.316;10.182;2022-08-19T19:51:35;17.40;99.90
37478;DHT22;23334;54.316;10.182;2022-08-19T19:54:04;17.50;99.90
37478;DHT22;23334;54.316;10.182;2022-08-19T19:56:30;17.50;99.90
37478;DHT22;23334;54.316;10.182;2022-08-19T19:58:56;17.60;99.90
37478;DHT22;23334;54.316;10.182;2022-08-19T20:01:23;17.50;99.90
37478;DHT22;23334;54.316;10.182;2022-08-19T20:03:52;17.60;99.90
37478;DHT22;23334;54.316;10.182;2022-08-19T20:06:17;17.50;99.90
37478;DHT22;23334;54.316;10.182;2022-08-19T20:08:45;17.60;99.90
37478;DHT22;23334;54.316;10.182;2022-08-19T20:11:33;17.50;99.90
37478;DHT22;23334;54.316;10.182;2022-08-19T20:14:05;17.60;99.90
37478;DHT22;23334;54.316;10.182;2022-08-19T20:16:31;17.60;99.90
37478;DHT22;23334;54.316;10.182;2022-08-19T20:18:59;17.60;99.90
37478;DHT22;23334;54.316;10.182;2022-08-19T20:21:26;17.60;99.90
37478;DHT22;23334;54.316;10.182;2022-08-19T20:23:57;17.60;99.90
37478;DHT22;23334;54.316;10.182;2022-08-19T20:26:24;17.30;99.90
37478;DHT22;23334;54.316;10.182;2022-08-19T20:28:50;17.70;99.90
37478;DHT22;23334;54.316;10.182;2022-08-19T20:31:17;17.60;99.90
37478;DHT22;23334;54.316;10.182;2022-08-19T20:33:43;17.70;99.90
37478;DHT22;23334;54.316;10.182;2022-08-19T20:36:09;17.60;99.90
37478;DHT22;23334;54.316;10.182;2022-08-19T20:38:36;17.60;99.90
37478;DHT22;23334;54.316;10.182;2022-08-19T20:41:04;17.60;99.90
37478;DHT22;23334;54.316;10.182;2022-08-19T20:43:30;17.50;99.90
37478;DHT22;23334;54.316;10.182;2022-08-19T20:45:56;17.50;99.90
37478;DHT22;23334;54.316;10.182;2022-08-19T20:48:21;17.50;99.90
37478;DHT22;23334;54.316;10.182;2022-08-19T20:50:47;18.00;99.90
37478;DHT22;23334;54.316;10.182;2022-08-19T20:53:18;18.00;99.90
37478;DHT22;23334;54.316;10.182;2022-08-19T20:55:46;17.50;99.90
37478;DHT22;23334;54.316;10.182;2022-08-19T20:58:14;17.50;99.90
37478;DHT22;23334;54.316;10.182;2022-08-19T21:00:41;17.50;99.90
37478;DHT22;23334;54.316;10.182;2022-08-19T21:03:17;17.60;99.90
37478;DHT22;23334;54.316;10.182;2022-08-19T21:05:47;17.60;99.90
37478;DHT22;23334;54.316;10.182;2022-08-19T21:08:14;17.50;99.90
37478;DHT22;23334;54.316;10.182;2022-08-19T21:10:43;17.00;99.90
37478;DHT22;23334;54.316;10.182;2022-08-19T21:13:09;17.60;99.90
37478;DHT22;23334;54.316;10.182;2022-08-19T21:15:34;17.60;99.90
37478;DHT22;23334;54.316;10.182;2022-08-19T21:18:04;17.20;99.90
37478;DHT22;23334;54.316;10.182;2022-08-19T21:20:29;17.10;99.90
37478;DHT22;23334;54.316;10.182;2022-08-19T21:22:54;16.90;99.90
37478;DHT22;23334;54.316;10.182;2022-08-19T21:25:20;17.20;99.90
37478;DHT22;23334;54.316;10.182;2022-08-19T21:27:46;16.80;99.90
37478;DHT22;23334;54.316;10.182;2022-08-19T21:30:12;16.90;99.90
37478;DHT22;23334;54.316;10.182;2022-08-19T21:32:39;16.70;99.90
37478;DHT22;23334;54.316;10.182;2022-08-19T21:35:04;16.60;99.90
37478;DHT22;23334;54.316;10.182;2022-08-19T21:37:30;16.50;99.90
37478;DHT22;23334;54.316;10.182;2022-08-19T21:39:59;16.40;99.90
37478;DHT22;23334;54.316;10.182;2022-08-19T21:42:24;16.30;99.90
37478;DHT22;23334;54.316;10.182;2022-08-19T21:44:50;16.30;99.90
37478;DHT22;23334;54.316;10.182;2022-08-19T21:47:16;16.30;99.90
37478;DHT22;23334;54.316;10.182;2022-08-19T21:49:41;15.90;99.90
37478;DHT22;23334;54.316;10.182;2022-08-19T21:52:07;16.40;99.90
37478;DHT22;23334;54.316;10.182;2022-08-19T21:54:34;16.20;99.90
37478;DHT22;23334;54.316;10.182;2022-08-19T21:56:59;16.30;99.90
37478;DHT22;23334;54.316;10.182;2022-08-19T21:59:25;16.10;99.90
37478;DHT22;23334;54.316;10.182;2022-08-19T22:01:50;16.20;99.90
37478;DHT22;23334;54.316;10.182;2022-08-19T22:04:17;16.20;99.90
37478;DHT22;23334;54.316;10.182;2022-08-19T22:06:43;16.10;99.90
37478;DHT22;23334;54.316;10.182;2022-08-19T22:09:08;16.10;99.90
37478;DHT22;23334;54.316;10.182;2022-08-19T22:11:34;15.80;99.90
37478;DHT22;23334;54.316;10.182;2022-08-19T22:14:00;16.50;99.90
37478;DHT22;23334;54.316;10.182;2022-08-19T22:16:25;15.90;99.90
37478;DHT22;23334;54.316;10.182;2022-08-19T22:18:51;15.90;99.90
37478;DHT22;23334;54.316;10.182;2022-08-19T22:21:17;15.90;99.90
37478;DHT22;23334;54.316;10.182;2022-08-19T22:23:44;15.80;99.90
37478;DHT22;23334;54.316;10.182;2022-08-19T22:26:11;15.70;99.90
37478;DHT22;23334;54.316;10.182;2022-08-19T22:28:37;15.90;99.90
37478;DHT22;23334;54.316;10.182;2022-08-19T22:31:03;15.90;99.90
37478;DHT22;23334;54.316;10.182;2022-08-19T22:33:29;15.70;99.90
37478;DHT22;23334;54.316;10.182;2022-08-19T22:35:57;16.00;99.90
37478;DHT22;23334;54.316;10.182;2022-08-19T22:38:23;16.00;99.90
37478;DHT22;23334;54.316;10.182;2022-08-19T22:40:50;16.00;99.90
37478;DHT22;23334;54.316;10.182;2022-08-19T22:43:21;16.20;99.90
37478;DHT22;23334;54.316;10.182;2022-08-19T22:45:48;15.90;99.90
37478;DHT22;23334;54.316;10.182;2022-08-19T22:48:17;15.80;99.90
37478;DHT22;23334;54.316;10.182;2022-08-19T22:50:46;15.80;99.90
37478;DHT22;23334;54.316;10.182;2022-08-19T22:53:34;15.70;99.90
37478;DHT22;23334;54.316;10.182;2022-08-19T22:56:03;15.40;99.90
37478;DHT22;23334;54.316;10.182;2022-08-19T22:58:28;15.80;99.90
37478;DHT22;23334;54.316;10.182;2022-08-19T23:00:55;15.80;99.90
37478;DHT22;23334;54.316;10.182;2022-08-19T23:03:21;15.70;99.90
37478;DHT22;23334;54.316;10.182;2022-08-19T23:05:46;15.80;99.90
37478;DHT22;23334;54.316;10.182;2022-08-19T23:08:12;15.80;99.90
37478;DHT22;23334;54.316;10.182;2022-08-19T23:10:37;15.70;99.90
37478;DHT22;23334;54.316;10.182;2022-08-19T23:13:03;15.60;99.90
37478;DHT22;23334;54.316;10.182;2022-08-19T23:15:30;15.60;99.90
37478;DHT22;23334;54.316;10.182;2022-08-19T23:17:58;15.80;99.90
37478;DHT22;23334;54.316;10.182;2022-08-19T23:20:27;15.50;99.90
37478;DHT22;23334;54.316;10.182;2022-08-19T23:22:55;15.80;99.90
37478;DHT22;23334;54.316;10.182;2022-08-19T23:25:24;16.00;99.90
37478;DHT22;23334;54.316;10.182;2022-08-19T23:27:50;15.80;99.90
37478;DHT22;23334;54.316;10.182;2022-08-19T23:30:39;15.70;99.90
37478;DHT22;23334;54.316;10.182;2022-08-19T23:33:19;15.70;99.90
37478;DHT22;23334;54.316;10.182;2022-08-19T23:36:13;15.70;99.90
37478;DHT22;23334;54.316;10.182;2022-08-19T23:38:41;15.60;99.90
37478;DHT22;23334;54.316;10.182;2022-08-19T23:41:09;15.40;99.90
37478;DHT22;23334;54.316;10.182;2022-08-19T23:43:36;15.60;99.90
37478;DHT22;23334;54.316;10.182;2022-08-19T23:46:04;15.20;99.90
37478;DHT22;23334;54.316;10.182;2022-08-19T23:48:31;15.60;99.90
37478;DHT22;23334;54.316;10.182;2022-08-19T23:50:58;15.60;99.90
37478;DHT22;23334;54.316;10.182;2022-08-19T23:53:25;15.50;99.90
37478;DHT22;23334;54.316;10.182;2022-08-19T23:55:51;15.90;99.90
37478;DHT22;23334;54.316;10.182;2022-08-19T23:58:17;15.50;99.90
